Kamas, Utah
Current Conditions -  °F | °C
As of 12:55 AM on Wednesday 26 Nov 2014 (Local Time) from K36U Reporting Station
Scattered Clouds Scattered Clouds  
Wind Chill: 26°   Ceiling: Unl
Heat Index: 32°   Visibility: 10mi
Dew Point: 32°   Wind: 6mph
Humidity: 100%   Direction: 110°ESE
Pressure: 30.32"   Gusts: NA
Location:  40.64°N, 111.28°W
Report Text: K36U 260755Z AUTO 11005KT 10SM SCT048 SCT065 00/00 A3032 RMK AO2
Loading
Personal Weather Stations






























Interactive Weather Map New forecast layout! Learn more

10-Day Weather Forecast

Advertisements
Track Severe Weather on mobile